Time;durP1;ratioP1;P1;durP2;ratioP2;P2;SDS_P1;SDS_P2;PMS_P1;PMS_P2;Temp;Humidity;BMP_temperature;BMP_pressure;BME280_temperature;BME280_humidity;BME280_pressure;Samples;Min_cycle;Max_cycle;Signal;HPM_P1;HPM_P2
2021/08/06 00:00:21;;;;;;;9.52;8.02;;;14.00;96.00;;;;;;5062110;28;20024;-66
2021/08/06 00:02:46;;;;;;;12.07;8.73;;;14.00;96.10;;;;;;5063576;28;20424;-66
2021/08/06 00:05:12;;;;;;;10.85;8.95;;;14.00;96.30;;;;;;5062371;28;20040;-65
2021/08/06 00:07:38;;;;;;;12.43;9.15;;;14.00;96.20;;;;;;5060644;28;20033;-66
2021/08/06 00:10:05;;;;;;;16.27;9.80;;;13.90;96.40;;;;;;5064463;28;20079;-66
2021/08/06 00:12:31;;;;;;;12.23;9.68;;;13.90;96.50;;;;;;5055214;28;20104;-65
2021/08/06 00:14:56;;;;;;;10.52;9.35;;;14.00;96.70;;;;;;5058973;28;20515;-64
2021/08/06 00:17:22;;;;;;;11.57;9.32;;;13.90;96.60;;;;;;5064229;28;20096;-65
2021/08/06 00:19:47;;;;;;;14.18;9.52;;;13.80;96.70;;;;;;5064126;28;20096;-66
2021/08/06 00:22:13;;;;;;;12.80;9.38;;;13.80;96.80;;;;;;5064740;28;20031;-65
2021/08/06 00:24:39;;;;;;;12.82;10.40;;;13.70;96.70;;;;;;5061322;28;20017;-66
2021/08/06 00:27:06;;;;;;;12.65;10.93;;;13.80;96.90;;;;;;5058912;28;20478;-66
2021/08/06 00:29:32;;;;;;;14.95;11.73;;;13.80;96.90;;;;;;5052612;28;20177;-64
2021/08/06 00:31:57;;;;;;;16.15;11.07;;;13.80;97.00;;;;;;5047152;28;20233;-64
2021/08/06 00:34:23;;;;;;;13.27;10.90;;;13.80;97.10;;;;;;5056293;28;20044;-65
2021/08/06 00:36:49;;;;;;;12.75;10.43;;;13.70;96.90;;;;;;5057147;28;20069;-65
2021/08/06 00:39:14;;;;;;;14.38;11.18;;;13.70;96.90;;;;;;5043880;28;20218;-65
2021/08/06 00:41:40;;;;;;;14.75;11.88;;;13.60;97.10;;;;;;5065642;28;20169;-65
2021/08/06 00:44:06;;;;;;;17.27;12.60;;;13.70;97.20;;;;;;5065036;28;20473;-66
2021/08/06 00:46:32;;;;;;;13.65;12.10;;;13.60;97.20;;;;;;5070245;28;20024;-65
2021/08/06 00:48:58;;;;;;;14.25;12.50;;;13.60;97.10;;;;;;5068301;28;20079;-66
2021/08/06 00:51:24;;;;;;;13.68;11.75;;;13.70;97.20;;;;;;5065601;28;20471;-66
2021/08/06 00:53:50;;;;;;;15.88;12.73;;;13.60;97.10;;;;;;5059636;28;20138;-66
2021/08/06 00:56:16;;;;;;;17.55;14.15;;;13.60;97.10;;;;;;5065055;28;20020;-65
2021/08/06 00:58:41;;;;;;;15.80;13.20;;;13.70;97.30;;;;;;5067250;28;20043;-66
2021/08/06 01:01:07;;;;;;;17.25;13.18;;;13.60;97.20;;;;;;5061822;28;20040;-66
2021/08/06 01:03:51;;;;;;;15.55;13.13;;;13.80;97.40;;;;;;5061466;28;20046;-66
2021/08/06 01:06:22;;;;;;;17.85;13.82;;;13.70;97.10;;;;;;5065331;28;20043;-65
2021/08/06 01:08:57;;;;;;;17.83;13.75;;;13.70;97.20;;;;;;5067094;28;20040;-65
2021/08/06 01:11:27;;;;;;;18.63;14.30;;;13.80;97.10;;;;;;5065428;28;20028;-66
2021/08/06 01:13:55;;;;;;;17.17;14.13;;;13.80;96.90;;;;;;5064024;28;20025;-66
2021/08/06 01:16:27;;;;;;;18.95;12.85;;;13.90;96.80;;;;;;5064997;28;20404;-66
2021/08/06 01:18:57;;;;;;;;;;;14.00;96.80;;;;;;5064039;28;20033;-65
2021/08/06 01:21:27;;;;;;;12.90;11.40;;;13.90;96.60;;;;;;5063448;28;20238;-65
2021/08/06 01:23:57;;;;;;;13.43;11.38;;;13.80;96.70;;;;;;5055958;28;20472;-66
2021/08/06 01:26:24;;;;;;;15.97;12.93;;;13.80;96.80;;;;;;5060278;28;20021;-66
2021/08/06 01:28:50;;;;;;;13.43;11.75;;;13.80;96.80;;;;;;5055684;28;20043;-66
2021/08/06 01:31:25;;;;;;;16.33;12.55;;;13.70;96.80;;;;;;5064457;28;20067;-66
2021/08/06 01:33:50;;;;;;;13.68;11.85;;;13.60;96.80;;;;;;5065407;28;20069;-67
2021/08/06 01:36:16;;;;;;;14.57;12.98;;;13.60;96.80;;;;;;5059037;28;20473;-66
2021/08/06 01:38:42;;;;;;;17.52;13.63;;;13.60;97.00;;;;;;5065841;28;20032;-66
2021/08/06 01:41:10;;;;;;;16.77;13.27;;;13.60;97.10;;;;;;5062513;28;20639;-66
2021/08/06 01:44:06;;;;;;;16.55;13.88;;;13.60;97.10;;;;;;5064154;28;20069;-65
2021/08/06 01:46:36;;;;;;;17.85;14.32;;;13.60;97.10;;;;;;5051561;28;20043;-65
2021/08/06 01:49:17;;;;;;;19.13;15.25;;;13.60;97.20;;;;;;5063868;28;20437;-65
2021/08/06 01:51:46;;;;;;;19.08;13.82;;;13.70;97.30;;;;;;5064705;28;20170;-66
2021/08/06 01:54:13;;;;;;;19.98;15.13;;;13.60;97.20;;;;;;5060534;28;20506;-66
2021/08/06 01:56:40;;;;;;;20.77;13.80;;;13.60;97.10;;;;;;5061128;28;20031;-66
2021/08/06 01:59:06;;;;;;;18.77;14.15;;;13.60;97.00;;;;;;5063554;28;20028;-66
2021/08/06 02:01:32;;;;;;;22.20;14.77;;;13.60;97.10;;;;;;5065575;28;20195;-66
2021/08/06 02:03:58;;;;;;;17.50;14.35;;;13.60;97.10;;;;;;5064199;28;20463;-66
2021/08/06 02:06:24;;;;;;;17.67;14.43;;;13.50;97.20;;;;;;5062828;28;20039;-65
2021/08/06 02:08:50;;;;;;;18.42;14.00;;;13.60;97.20;;;;;;5062921;28;20055;-66
2021/08/06 02:11:20;;;;;;;18.45;15.00;;;13.50;97.10;;;;;;5060475;28;20546;-66
2021/08/06 02:13:50;;;;;;;18.20;15.48;;;13.50;97.20;;;;;;5062620;28;20035;-66
2021/08/06 02:16:18;;;;;;;19.52;15.13;;;13.50;97.30;;;;;;5060160;28;20416;-66
2021/08/06 02:18:51;;;;;;;18.48;15.15;;;13.50;97.30;;;;;;5068116;28;20448;-66
2021/08/06 02:21:24;;;;;;;19.15;15.32;;;13.50;97.20;;;;;;5061590;28;20036;-66
2021/08/06 02:23:52;;;;;;;18.75;16.08;;;13.50;97.20;;;;;;5054969;28;21036;-65
2021/08/06 02:26:19;;;;;;;17.55;14.75;;;13.50;97.20;;;;;;5063807;28;20032;-66
2021/08/06 02:28:46;;;;;;;22.05;16.92;;;13.50;97.30;;;;;;5064133;28;20503;-65
2021/08/06 02:31:13;;;;;;;20.25;16.60;;;13.60;97.30;;;;;;5066096;28;20376;-66
2021/08/06 02:33:39;;;;;;;20.42;16.92;;;13.50;97.20;;;;;;5060252;28;20085;-65
2021/08/06 02:36:05;;;;;;;18.63;16.30;;;13.50;97.10;;;;;;5062968;28;20098;-66
2021/08/06 02:38:30;;;;;;;19.60;16.52;;;13.50;97.10;;;;;;5063088;28;20028;-65
2021/08/06 02:40:56;;;;;;;21.52;15.77;;;13.40;97.20;;;;;;5054884;28;20036;-65
2021/08/06 02:43:22;;;;;;;22.30;16.38;;;13.40;97.20;;;;;;5062080;28;20039;-66
2021/08/06 02:45:51;;;;;;;20.42;16.00;;;13.40;97.30;;;;;;5063535;28;20146;-65
2021/08/06 02:48:17;;;;;;;22.15;16.45;;;13.30;97.30;;;;;;5066520;28;20471;-66
2021/08/06 02:50:43;;;;;;;24.70;17.45;;;13.30;97.40;;;;;;5059769;28;20491;-66
2021/08/06 02:53:09;;;;;;;21.77;16.10;;;13.30;97.40;;;;;;5068111;28;20035;-66
2021/08/06 02:55:36;;;;;;;24.38;17.85;;;13.30;97.40;;;;;;5061735;28;20047;-66
2021/08/06 02:58:02;;;;;;;24.50;18.10;;;13.30;97.60;;;;;;5061600;28;20420;-66
2021/08/06 03:00:28;;;;;;;20.58;17.90;;;13.30;97.60;;;;;;5057229;28;20044;-65
2021/08/06 03:02:53;;;;;;;24.33;18.88;;;13.20;97.60;;;;;;5057597;28;20032;-66
2021/08/06 03:05:19;;;;;;;24.45;18.83;;;13.20;97.60;;;;;;5063742;28;20032;-66
2021/08/06 03:07:52;;;;;;;24.00;18.55;;;13.20;97.70;;;;;;5062219;28;20516;-65
2021/08/06 03:10:19;;;;;;;24.58;20.08;;;13.20;97.60;;;;;;5058031;28;20032;-66
2021/08/06 03:12:48;;;;;;;27.00;20.50;;;13.20;97.70;;;;;;5058947;28;20484;-66
2021/08/06 03:15:15;;;;;;;24.35;19.80;;;13.20;97.80;;;;;;5069605;28;20510;-66
2021/08/06 03:17:42;;;;;;;25.40;19.85;;;13.30;97.80;;;;;;5060725;28;20424;-66
2021/08/06 03:20:13;;;;;;;26.55;21.13;;;13.30;97.80;;;;;;5058582;28;20516;-66
2021/08/06 03:22:40;;;;;;;24.52;20.40;;;13.20;97.80;;;;;;5056267;28;20029;-66
2021/08/06 03:25:10;;;;;;;25.88;19.98;;;13.20;97.70;;;;;;5061870;28;20063;-66
2021/08/06 03:27:35;;;;;;;24.92;19.85;;;13.20;97.80;;;;;;5059696;28;20189;-66
2021/08/06 03:30:03;;;;;;;26.25;20.00;;;13.20;97.70;;;;;;5061591;28;20465;-66
2021/08/06 03:32:28;;;;;;;28.45;21.98;;;13.20;97.80;;;;;;5065508;28;20119;-65
2021/08/06 03:34:54;;;;;;;28.20;21.55;;;13.20;97.90;;;;;;5063040;28;20119;-65
2021/08/06 03:37:19;;;;;;;28.63;21.17;;;13.20;97.90;;;;;;5066918;28;20399;-65
2021/08/06 03:39:45;;;;;;;27.50;20.35;;;13.10;97.80;;;;;;5063256;28;20031;-66
2021/08/06 03:42:11;;;;;;;26.13;19.33;;;13.20;97.80;;;;;;5057945;28;20056;-65
2021/08/06 03:44:36;;;;;;;26.63;20.30;;;13.10;97.70;;;;;;5062226;28;20067;-66
2021/08/06 03:47:02;;;;;;;24.95;19.80;;;13.10;97.80;;;;;;5061786;28;20043;-66
2021/08/06 03:49:28;;;;;;;27.42;20.80;;;13.20;97.80;;;;;;5061318;28;20119;-65
2021/08/06 03:51:53;;;;;;;26.15;20.67;;;13.20;97.80;;;;;;5058938;28;20097;-65
2021/08/06 03:54:19;;;;;;;28.08;19.98;;;13.20;97.70;;;;;;5066262;28;20483;-65
2021/08/06 03:56:45;;;;;;;24.80;19.73;;;13.20;97.70;;;;;;5060911;28;20171;-66
2021/08/06 03:59:10;;;;;;;26.73;19.95;;;13.20;97.70;;;;;;5062956;28;20073;-65
2021/08/06 04:01:36;;;;;;;23.98;18.77;;;13.30;97.70;;;;;;5060330;28;20307;-66
2021/08/06 04:04:01;;;;;;;24.83;19.40;;;13.30;97.60;;;;;;5062862;28;20020;-65
2021/08/06 04:06:27;;;;;;;22.02;17.55;;;13.30;97.70;;;;;;5044112;28;20100;-65
2021/08/06 04:08:53;;;;;;;27.85;18.42;;;13.30;97.60;;;;;;5063618;28;20047;-65
2021/08/06 04:11:20;;;;;;;21.75;17.75;;;13.30;97.60;;;;;;5063085;28;21141;-66
2021/08/06 04:13:46;;;;;;;20.40;17.00;;;13.40;97.60;;;;;;5062951;28;20562;-66
2021/08/06 04:16:11;;;;;;;19.40;17.23;;;13.40;97.50;;;;;;5064872;28;20062;-66
2021/08/06 04:18:37;;;;;;;21.83;17.83;;;13.40;97.50;;;;;;5063451;28;20353;-66
2021/08/06 04:21:03;;;;;;;26.25;19.00;;;13.50;97.40;;;;;;5061026;28;20043;-66
2021/08/06 04:23:28;;;;;;;23.88;19.77;;;13.50;97.40;;;;;;5056428;28;20531;-65
2021/08/06 04:25:54;;;;;;;24.42;19.65;;;13.50;97.40;;;;;;5060728;28;20577;-66
2021/08/06 04:28:20;;;;;;;24.70;20.15;;;13.50;97.40;;;;;;5065142;28;20073;-66
2021/08/06 04:30:45;;;;;;;24.88;20.58;;;13.50;97.30;;;;;;5067381;28;20154;-66
2021/08/06 04:33:11;;;;;;;29.10;20.38;;;13.50;97.30;;;;;;5065920;28;20032;-65
2021/08/06 04:35:36;;;;;;;24.58;20.92;;;13.60;97.30;;;;;;5066150;28;20145;-66
2021/08/06 04:38:02;;;;;;;26.05;20.60;;;13.60;97.30;;;;;;5065433;28;20480;-65
2021/08/06 04:40:28;;;;;;;26.88;19.90;;;13.60;97.20;;;;;;5066384;28;20037;-66
2021/08/06 04:42:54;;;;;;;24.83;21.10;;;13.60;97.20;;;;;;5064052;28;20078;-66
2021/08/06 04:45:20;;;;;;;24.83;19.83;;;13.60;97.10;;;;;;5065014;28;20109;-66
2021/08/06 04:47:51;;;;;;;24.33;19.90;;;13.60;97.00;;;;;;5065123;28;20036;-66
2021/08/06 04:50:19;;;;;;;22.52;18.70;;;13.70;96.90;;;;;;5068623;28;20077;-66
2021/08/06 04:52:45;;;;;;;21.67;18.30;;;13.70;96.80;;;;;;5064349;28;20441;-66
2021/08/06 04:55:11;;;;;;;21.65;18.77;;;13.80;96.60;;;;;;5071486;28;20028;-65
2021/08/06 04:57:38;;;;;;;20.88;17.30;;;13.70;96.60;;;;;;5066423;28;20039;-66
2021/08/06 05:00:07;;;;;;;22.85;18.23;;;13.80;96.50;;;;;;5064246;28;20051;-66
2021/08/06 05:02:32;;;;;;;18.88;16.65;;;13.80;96.60;;;;;;5059889;28;20025;-65
2021/08/06 05:04:58;;;;;;;22.73;18.35;;;13.80;96.50;;;;;;5061946;28;20032;-66
2021/08/06 05:07:23;;;;;;;19.20;16.83;;;13.80;96.50;;;;;;5061074;28;20204;-66
2021/08/06 05:09:49;;;;;;;21.55;16.88;;;13.80;96.60;;;;;;5066820;28;20360;-66
2021/08/06 05:12:15;;;;;;;21.25;17.23;;;13.90;96.50;;;;;;5066161;28;20042;-66
2021/08/06 05:14:41;;;;;;;19.85;16.75;;;14.00;96.40;;;;;;5071756;28;20025;-66
2021/08/06 05:17:07;;;;;;;18.90;16.48;;;13.90;96.40;;;;;;5064302;28;20040;-66
2021/08/06 05:19:33;;;;;;;19.20;16.10;;;14.00;96.40;;;;;;5065947;28;20021;-67
2021/08/06 05:21:59;;;;;;;20.75;15.98;;;14.00;96.30;;;;;;5054700;28;20050;-66
2021/08/06 05:24:24;;;;;;;18.27;15.88;;;14.00;96.20;;;;;;5050357;28;20031;-66
2021/08/06 05:26:50;;;;;;;16.98;15.18;;;14.00;96.10;;;;;;5044419;28;20040;-66
2021/08/06 05:29:15;;;;;;;18.52;15.45;;;14.10;96.00;;;;;;5064001;28;20060;-66
2021/08/06 05:31:41;;;;;;;18.38;14.45;;;14.10;95.80;;;;;;5061696;28;20044;-66
2021/08/06 05:34:07;;;;;;;18.63;15.43;;;14.10;95.80;;;;;;5065014;28;20069;-68
2021/08/06 05:36:33;;;;;;;17.17;15.13;;;14.10;95.90;;;;;;5069904;28;20372;-66
2021/08/06 05:38:58;;;;;;;19.35;14.75;;;14.20;95.70;;;;;;5070017;28;20041;-66
2021/08/06 05:41:24;;;;;;;20.02;15.27;;;14.30;95.70;;;;;;5064836;28;20036;-66
2021/08/06 05:43:50;;;;;;;18.17;16.00;;;14.30;95.70;;;;;;5065724;28;20036;-66
2021/08/06 05:46:15;;;;;;;16.15;14.45;;;14.40;95.90;;;;;;5063880;28;20401;-65
2021/08/06 05:48:41;;;;;;;20.23;14.38;;;14.40;95.70;;;;;;5063137;28;20451;-66
2021/08/06 05:51:06;;;;;;;17.95;14.00;;;14.50;95.50;;;;;;5060430;28;20072;-66
2021/08/06 05:53:32;;;;;;;17.83;15.10;;;14.60;95.40;;;;;;5070962;28;20062;-67
2021/08/06 05:55:59;;;;;;;16.38;14.68;;;14.70;95.40;;;;;;5061983;28;20034;-66
2021/08/06 05:58:25;;;;;;;17.95;15.05;;;14.80;95.10;;;;;;5047333;28;20503;-67
2021/08/06 06:00:50;;;;;;;16.17;14.05;;;14.90;94.90;;;;;;5065551;28;20067;-66
2021/08/06 06:03:17;;;;;;;19.85;14.48;;;14.90;94.80;;;;;;5066965;28;20503;-66
2021/08/06 06:05:44;;;;;;;19.15;14.25;;;15.00;94.80;;;;;;5067457;28;20028;-67
2021/08/06 06:08:10;;;;;;;17.73;14.07;;;15.10;94.40;;;;;;5065478;28;20239;-66
2021/08/06 06:10:36;;;;;;;18.25;14.57;;;15.20;94.10;;;;;;5072493;28;20207;-66
2021/08/06 06:13:02;;;;;;;19.38;14.68;;;15.30;93.90;;;;;;5056693;28;20275;-66
2021/08/06 06:15:27;;;;;;;16.08;13.68;;;15.40;93.80;;;;;;5062534;28;20044;-66
2021/08/06 06:17:53;;;;;;;16.17;12.90;;;15.50;93.30;;;;;;5061699;28;20039;-66
2021/08/06 06:20:19;;;;;;;15.10;12.93;;;15.50;93.60;;;;;;5063796;28;20130;-67
2021/08/06 06:22:45;;;;;;;14.88;12.18;;;15.60;93.30;;;;;;5062018;28;20123;-66
2021/08/06 06:25:11;;;;;;;16.17;11.68;;;15.80;93.20;;;;;;5056717;28;20115;-67
2021/08/06 06:28:07;;;;;;;13.75;11.10;;;15.90;92.60;;;;;;5065738;28;20040;-67
2021/08/06 06:30:33;;;;;;;14.88;11.07;;;16.00;91.80;;;;;;5051341;28;20032;-67
2021/08/06 06:33:00;;;;;;;13.07;10.60;;;16.00;91.30;;;;;;5059973;28;20102;-67
2021/08/06 06:35:27;;;;;;;15.90;11.93;;;16.10;91.00;;;;;;5062426;28;20182;-67
2021/08/06 06:37:53;;;;;;;13.35;10.43;;;16.10;91.00;;;;;;5066504;28;20028;-66
2021/08/06 06:40:20;;;;;;;12.02;10.45;;;16.20;90.90;;;;;;5048624;28;20039;-67
2021/08/06 06:42:47;;;;;;;12.13;9.95;;;16.40;91.00;;;;;;5064545;28;20028;-67
2021/08/06 06:45:13;;;;;;;11.13;9.45;;;16.50;90.60;;;;;;5063340;28;20353;-68
2021/08/06 06:47:41;;;;;;;11.52;9.40;;;16.60;90.30;;;;;;5059588;28;20135;-66
2021/08/06 06:50:10;;;;;;;12.93;9.15;;;16.70;89.30;;;;;;5061996;28;20059;-66
2021/08/06 06:52:38;;;;;;;10.52;9.07;;;16.80;89.50;;;;;;5058374;28;20346;-66
2021/08/06 06:55:05;;;;;;;11.57;8.73;;;16.80;88.30;;;;;;5065246;28;20033;-66
2021/08/06 06:57:31;;;;;;;12.32;9.68;;;16.70;89.00;;;;;;5070000;28;20065;-66
2021/08/06 06:59:56;;;;;;;11.23;8.60;;;17.00;89.40;;;;;;5068136;28;20048;-66
2021/08/06 07:02:23;;;;;;;11.65;8.82;;;16.90;87.90;;;;;;5057407;28;20065;-67
2021/08/06 07:04:49;;;;;;;11.30;8.85;;;17.00;87.70;;;;;;5059879;28;20055;-67
2021/08/06 07:07:14;;;;;;;11.38;8.48;;;17.00;87.10;;;;;;5060501;28;20024;-66
2021/08/06 07:09:41;;;;;;;11.90;9.27;;;17.10;87.40;;;;;;5065244;28;20100;-66
2021/08/06 07:12:07;;;;;;;11.50;9.43;;;17.30;87.80;;;;;;5042767;28;20357;-66
2021/08/06 07:14:33;;;;;;;13.50;8.73;;;17.30;87.40;;;;;;5059453;28;20086;-66
2021/08/06 07:16:59;;;;;;;13.43;9.65;;;17.30;87.40;;;;;;5074271;28;20031;-67
2021/08/06 07:19:25;;;;;;;11.25;8.57;;;17.40;87.20;;;;;;5058875;28;20447;-67
2021/08/06 07:21:50;;;;;;;10.18;8.07;;;17.60;87.20;;;;;;5048383;28;20360;-66
2021/08/06 07:24:17;;;;;;;10.48;8.23;;;17.70;85.60;;;;;;5063774;28;20089;-67
2021/08/06 07:26:42;;;;;;;10.13;8.05;;;17.70;86.20;;;;;;5063397;28;20097;-67
2021/08/06 07:29:08;;;;;;;11.73;7.68;;;17.90;86.60;;;;;;5061565;28;20354;-67
2021/08/06 07:31:34;;;;;;;8.93;6.97;;;18.00;85.20;;;;;;5053706;28;20154;-66
2021/08/06 07:33:59;;;;;;;9.45;6.97;;;18.20;84.20;;;;;;5059115;28;20098;-66
2021/08/06 07:36:25;;;;;;;8.68;7.10;;;18.20;83.20;;;;;;5074506;28;20039;-66
2021/08/06 07:38:51;;;;;;;9.90;7.30;;;18.30;83.50;;;;;;5062555;28;20032;-67
2021/08/06 07:41:17;;;;;;;9.68;7.03;;;18.30;84.00;;;;;;5064001;28;20033;-66
2021/08/06 07:43:42;;;;;;;9.02;6.82;;;18.50;84.00;;;;;;5065413;28;20096;-67
2021/08/06 07:46:08;;;;;;;9.48;6.95;;;18.60;84.70;;;;;;5063321;28;20028;-67
2021/08/06 07:48:34;;;;;;;9.57;7.18;;;18.80;82.90;;;;;;5063524;28;20036;-68
2021/08/06 07:50:59;;;;;;;8.35;6.43;;;18.90;82.90;;;;;;5060320;28;20081;-66
2021/08/06 07:53:25;;;;;;;8.82;6.63;;;18.90;82.00;;;;;;5059075;28;20028;-67
2021/08/06 07:55:52;;;;;;;7.75;6.15;;;19.00;81.40;;;;;;5065210;28;20382;-67
2021/08/06 07:58:18;;;;;;;11.00;6.68;;;19.00;81.80;;;;;;5064881;28;20500;-66
2021/08/06 08:00:44;;;;;;;8.40;5.78;;;19.20;81.10;;;;;;5064104;28;20111;-67
2021/08/06 08:03:10;;;;;;;7.32;5.90;;;19.40;80.90;;;;;;5066961;28;20667;-65
2021/08/06 08:05:36;;;;;;;7.65;6.20;;;19.70;80.30;;;;;;5069043;28;20128;-66
2021/08/06 08:08:01;;;;;;;6.90;5.75;;;19.80;80.50;;;;;;5068723;28;20043;-67
2021/08/06 08:10:27;;;;;;;9.00;5.90;;;19.90;77.90;;;;;;5065384;28;20094;-67
2021/08/06 08:12:53;;;;;;;7.65;5.97;;;20.00;78.40;;;;;;5065218;28;20498;-67
2021/08/06 08:15:19;;;;;;;7.75;5.82;;;20.00;78.60;;;;;;5067071;28;20031;-67
2021/08/06 08:17:44;;;;;;;6.28;5.35;;;20.10;77.40;;;;;;5065608;28;20104;-67
2021/08/06 08:20:10;;;;;;;7.85;5.78;;;20.10;77.90;;;;;;5071158;28;20031;-67
2021/08/06 08:22:36;;;;;;;8.20;5.60;;;20.30;78.10;;;;;;5067998;28;20357;-67
2021/08/06 08:25:02;;;;;;;6.90;5.00;;;20.40;78.90;;;;;;5067813;28;20031;-67
2021/08/06 08:27:29;;;;;;;6.65;5.15;;;20.60;76.90;;;;;;5065315;28;20033;-69
2021/08/06 08:29:55;;;;;;;6.72;5.38;;;20.70;77.00;;;;;;5063901;28;20417;-67
2021/08/06 08:32:20;;;;;;;7.95;5.25;;;20.90;75.60;;;;;;5066740;28;20095;-67
2021/08/06 08:34:46;;;;;;;6.50;4.70;;;21.00;75.60;;;;;;5065902;28;20330;-67
2021/08/06 08:37:13;;;;;;;7.38;5.35;;;21.00;75.40;;;;;;5071173;28;20016;-66
2021/08/06 08:39:39;;;;;;;7.30;4.85;;;21.00;75.70;;;;;;5061806;28;20169;-67
2021/08/06 08:42:04;;;;;;;7.25;4.88;;;21.00;74.90;;;;;;5064428;28;20116;-67
2021/08/06 08:44:33;;;;;;;9.75;5.57;;;21.10;77.70;;;;;;5062595;28;20478;-66
2021/08/06 08:46:59;;;;;;;8.98;5.00;;;21.00;74.90;;;;;;5067686;28;20034;-66
2021/08/06 08:49:30;;;;;;;7.50;5.13;;;20.90;76.00;;;;;;5065652;28;20028;-66
2021/08/06 08:51:56;;;;;;;6.75;5.22;;;20.80;77.10;;;;;;5063636;28;20040;-66
2021/08/06 08:54:21;;;;;;;6.22;4.60;;;21.10;77.00;;;;;;5063736;28;20849;-67
2021/08/06 08:56:47;;;;;;;5.90;5.00;;;21.40;76.10;;;;;;5072847;28;20028;-66
2021/08/06 08:59:12;;;;;;;6.85;4.88;;;21.00;75.60;;;;;;5067637;28;20171;-67
2021/08/06 09:01:38;;;;;;;6.07;4.68;;;21.00;75.90;;;;;;5069265;28;20052;-66
2021/08/06 09:04:28;;;;;;;7.40;5.10;;;21.50;75.50;;;;;;5067960;28;20109;-66
2021/08/06 09:06:54;;;;;;;9.10;5.35;;;22.00;74.70;;;;;;5068090;28;20195;-66
2021/08/06 09:09:23;;;;;;;6.75;4.88;;;22.10;72.70;;;;;;5063913;28;20028;-67
2021/08/06 09:11:49;;;;;;;6.35;4.78;;;22.60;72.00;;;;;;5057242;28;20043;-67
2021/08/06 09:14:35;;;;;;;6.70;4.47;;;22.40;70.40;;;;;;5070636;28;20131;-67
2021/08/06 09:17:07;;;;;;;7.22;5.13;;;22.40;71.70;;;;;;5067034;28;20052;-66
2021/08/06 09:19:38;;;;;;;6.72;5.10;;;22.40;70.10;;;;;;5066309;28;20107;-67
2021/08/06 09:22:17;;;;;;;9.18;6.00;;;22.50;71.30;;;;;;5066589;28;20415;-67
2021/08/06 09:25:01;;;;;;;8.40;5.68;;;22.80;71.40;;;;;;5074055;28;20482;-67
2021/08/06 09:27:29;;;;;;;5.95;4.57;;;22.60;69.70;;;;;;5062749;28;20125;-68
2021/08/06 09:29:58;;;;;;;5.57;4.10;;;23.20;71.50;;;;;;5063868;28;20051;-68
2021/08/06 09:32:26;;;;;;;8.00;4.75;;;22.80;67.90;;;;;;5063897;28;20346;-68
2021/08/06 09:34:52;;;;;;;7.13;4.82;;;23.00;69.20;;;;;;5067400;28;20028;-68
2021/08/06 09:37:21;;;;;;;5.65;4.10;;;23.30;70.20;;;;;;5063123;28;20433;-68
2021/08/06 09:39:55;;;;;;;6.60;4.10;;;23.90;69.50;;;;;;5064674;28;20055;-69
2021/08/06 09:42:32;;;;;;;6.70;4.22;;;24.20;68.20;;;;;;5064723;28;20180;-69
2021/08/06 09:45:03;;;;;;;6.78;4.15;;;23.90;66.90;;;;;;5059445;28;20201;-68
2021/08/06 09:47:31;;;;;;;5.72;3.65;;;23.80;68.50;;;;;;5061477;28;20059;-69
2021/08/06 09:49:58;;;;;;;5.28;3.88;;;24.00;68.40;;;;;;5065261;28;20028;-69
2021/08/06 09:52:39;;;;;;;6.45;3.50;;;24.20;66.90;;;;;;5060493;28;20036;-68
2021/08/06 09:55:06;;;;;;;5.20;3.60;;;23.40;67.30;;;;;;5064131;28;20073;-68
2021/08/06 09:57:32;;;;;;;5.53;3.78;;;23.40;66.20;;;;;;5063509;28;20060;-69
2021/08/06 10:00:00;;;;;;;6.63;3.50;;;23.70;66.70;;;;;;5064670;28;20032;-69
2021/08/06 10:02:30;;;;;;;5.03;3.40;;;24.10;66.40;;;;;;5057538;28;20032;-68
2021/08/06 10:05:09;;;;;;;5.13;2.92;;;24.30;63.80;;;;;;5041933;28;20286;-69
2021/08/06 10:07:41;;;;;;;5.18;3.28;;;24.30;63.60;;;;;;5063175;28;20029;-68
2021/08/06 10:10:12;;;;;;;4.70;3.00;;;23.70;67.00;;;;;;5063320;28;20036;-69
2021/08/06 10:12:38;;;;;;;4.68;2.97;;;24.20;64.30;;;;;;5062677;28;20040;-67
2021/08/06 10:15:05;;;;;;;4.53;3.20;;;24.40;66.90;;;;;;5065221;28;20035;-69
2021/08/06 10:17:31;;;;;;;4.40;3.20;;;23.90;64.00;;;;;;5063299;28;20033;-69
2021/08/06 10:19:56;;;;;;;4.30;3.05;;;24.20;65.10;;;;;;5066941;28;20054;-69
2021/08/06 10:22:22;;;;;;;3.92;2.85;;;24.20;65.40;;;;;;5071884;28;20020;-69
2021/08/06 10:24:50;;;;;;;5.00;2.65;;;24.00;65.50;;;;;;5068445;28;20127;-68
2021/08/06 10:27:20;;;;;;;4.60;3.00;;;24.00;65.80;;;;;;5061223;28;20036;-69
2021/08/06 10:30:01;;;;;;;4.63;2.63;;;24.30;64.50;;;;;;5064027;28;20115;-69
2021/08/06 10:32:27;;;;;;;;;;;24.10;64.20;;;;;;5060639;28;20101;-68
2021/08/06 10:35:02;;;;;;;4.80;3.13;;;24.20;66.00;;;;;;5061043;28;20276;-68
2021/08/06 10:37:51;;;;;;;3.63;2.33;;;24.00;65.40;;;;;;5069328;28;20017;-68
2021/08/06 10:40:31;;;;;;;3.75;2.03;;;24.10;65.60;;;;;;5060368;28;20037;-69
2021/08/06 10:42:57;;;;;;;;;;;23.90;64.90;;;;;;5066030;28;20421;-68
2021/08/06 10:45:49;;;;;;;2.58;1.40;;;24.00;64.30;;;;;;5062166;28;20000;-68
2021/08/06 10:48:35;;;;;;;1.98;1.50;;;23.60;64.20;;;;;;5060351;28;20020;-68
2021/08/06 10:51:15;;;;;;;1.83;1.30;;;23.20;63.80;;;;;;5059912;28;20089;-69
2021/08/06 10:54:01;;;;;;;2.50;1.60;;;23.40;66.20;;;;;;5062416;28;20024;-69
2021/08/06 10:56:29;;;;;;;2.55;1.48;;;23.50;65.50;;;;;;5066233;28;20086;-68
2021/08/06 10:59:00;;;;;;;1.52;1.38;;;24.20;63.70;;;;;;5059880;28;20385;-67
2021/08/06 11:01:28;;;;;;;1.63;1.20;;;24.60;64.90;;;;;;5061146;28;20079;-68
2021/08/06 11:04:11;;;;;;;2.50;1.20;;;24.50;62.20;;;;;;5064658;28;20169;-68
2021/08/06 11:06:40;;;;;;;2.15;1.20;;;25.50;62.80;;;;;;5064841;28;20047;-69
2021/08/06 11:09:10;;;;;;;2.28;1.40;;;26.40;61.70;;;;;;5063618;28;20082;-66
2021/08/06 11:11:53;;;;;;;2.47;1.40;;;25.30;60.10;;;;;;5062922;28;20025;-69
2021/08/06 11:14:28;;;;;;;1.92;1.50;;;25.80;59.90;;;;;;5071120;28;20044;-69
2021/08/06 11:17:20;;;;;;;2.92;1.60;;;25.00;59.30;;;;;;5074878;28;20033;-69
2021/08/06 11:20:05;;;;;;;5.88;1.70;;;24.90;60.80;;;;;;5064075;28;20044;-69
2021/08/06 11:22:39;;;;;;;2.13;1.40;;;24.60;60.30;;;;;;5063576;28;20021;-69
2021/08/06 11:25:23;;;;;;;2.40;1.50;;;24.70;61.90;;;;;;5059502;28;20175;-68
2021/08/06 11:28:00;;;;;;;4.38;1.60;;;24.40;63.20;;;;;;5062375;28;20031;-69
2021/08/06 11:30:35;;;;;;;4.47;1.65;;;24.20;62.70;;;;;;5062735;28;20031;-69
2021/08/06 11:33:07;;;;;;;2.20;1.50;;;23.90;63.70;;;;;;5057492;28;20124;-68
2021/08/06 11:35:38;;;;;;;2.53;1.52;;;24.10;64.60;;;;;;5062651;28;20055;-68
2021/08/06 11:38:10;;;;;;;3.55;1.80;;;24.10;64.30;;;;;;5074341;28;20113;-68
2021/08/06 11:40:38;;;;;;;2.67;1.58;;;23.60;65.00;;;;;;5066390;28;20020;-68
2021/08/06 11:43:14;;;;;;;3.47;1.50;;;23.90;62.80;;;;;;5062924;28;20052;-68
2021/08/06 11:45:41;;;;;;;2.55;1.80;;;24.30;64.30;;;;;;5055689;28;20024;-68
2021/08/06 11:48:07;;;;;;;2.65;1.67;;;25.20;62.80;;;;;;5054904;28;20349;-67
2021/08/06 11:50:43;;;;;;;2.90;1.85;;;24.90;61.40;;;;;;5064554;28;20473;-68
2021/08/06 11:53:17;;;;;;;3.20;1.60;;;25.20;60.50;;;;;;5063442;28;20032;-69
2021/08/06 11:55:44;;;;;;;2.88;1.60;;;25.90;59.70;;;;;;5059561;28;20104;-68
2021/08/06 11:58:10;;;;;;;2.80;1.60;;;25.80;60.80;;;;;;5069000;28;20469;-69
2021/08/06 12:00:37;;;;;;;2.13;1.40;;;25.60;60.00;;;;;;5061228;28;20221;-68
2021/08/06 12:03:17;;;;;;;2.22;1.52;;;25.20;59.60;;;;;;5056803;28;20111;-69
2021/08/06 12:05:48;;;;;;;3.55;1.80;;;25.60;60.20;;;;;;5055197;28;20165;-68
2021/08/06 12:08:32;;;;;;;2.55;1.45;;;25.30;60.30;;;;;;5051692;28;20086;-68
2021/08/06 12:11:07;;;;;;;3.65;1.73;;;26.10;58.40;;;;;;5062972;28;20068;-69
2021/08/06 12:13:35;;;;;;;2.35;1.55;;;25.50;57.90;;;;;;5065271;28;20039;-69
2021/08/06 12:16:11;;;;;;;2.55;1.55;;;25.90;60.00;;;;;;5063540;28;20607;-68
2021/08/06 12:18:39;;;;;;;2.33;1.40;;;26.40;56.90;;;;;;5061014;28;20036;-68
2021/08/06 12:21:36;;;;;;;2.00;1.55;;;26.90;56.30;;;;;;5061557;28;20048;-69
2021/08/06 12:24:07;;;;;;;1.95;1.63;;;27.10;52.60;;;;;;5048277;28;20047;-69
2021/08/06 12:26:33;;;;;;;2.55;1.38;;;26.70;57.10;;;;;;5058001;28;20054;-68
2021/08/06 12:29:09;;;;;;;3.05;1.88;;;27.30;54.00;;;;;;5063806;28;20032;-69
2021/08/06 12:31:54;;;;;;;2.60;1.30;;;27.70;51.40;;;;;;5059966;28;20054;-68
2021/08/06 12:34:23;;;;;;;2.45;1.10;;;27.60;50.40;;;;;;5056132;28;20069;-68
2021/08/06 12:36:59;;;;;;;4.88;1.50;;;27.10;51.70;;;;;;5053317;28;20135;-68
2021/08/06 12:39:26;;;;;;;3.72;1.50;;;26.50;51.70;;;;;;5064829;28;20429;-68
2021/08/06 12:41:53;;;;;;;3.42;1.63;;;25.50;54.60;;;;;;5068685;28;20346;-67